Time;durP1;ratioP1;P1;durP2;ratioP2;P2;SDS_P1;SDS_P2;PMS_P1;PMS_P2;Temp;Humidity;BMP_temperature;BMP_pressure;BME280_temperature;BME280_humidity;BME280_pressure;Samples;Min_cycle;Max_cycle;Signal;HPM_P1;HPM_P2
2022/03/23 00:01:52;;;;;;;15.30;8.73;;;11.00;40.90;;;;;;5032759;28;20257;-75
2022/03/23 00:04:18;;;;;;;12.47;9.37;;;11.00;41.10;;;;;;5015516;28;20193;-74
2022/03/23 00:06:47;;;;;;;12.60;8.50;;;11.00;41.10;;;;;;5033258;28;20165;-74
2022/03/23 00:09:14;;;;;;;8.35;7.50;;;11.00;41.10;;;;;;5035630;28;20209;-74
2022/03/23 00:11:41;;;;;;;9.63;8.73;;;11.00;41.10;;;;;;5031434;28;20208;-73
2022/03/23 00:14:07;;;;;;;9.93;7.72;;;10.90;41.20;;;;;;5032577;28;20169;-73
2022/03/23 00:16:37;;;;;;;8.90;7.63;;;11.00;41.20;;;;;;5032457;28;20173;-74
2022/03/23 00:19:04;;;;;;;11.75;7.65;;;11.00;41.30;;;;;;5014322;28;20620;-73
2022/03/23 00:21:30;;;;;;;8.63;7.80;;;10.90;41.30;;;;;;5021936;28;20216;-74
2022/03/23 00:23:56;;;;;;;9.10;7.57;;;10.90;41.90;;;;;;5030921;28;20642;-73
2022/03/23 00:26:22;;;;;;;8.90;7.53;;;11.00;41.20;;;;;;5032133;28;20576;-73
2022/03/23 00:28:49;;;;;;;9.35;8.38;;;11.00;41.20;;;;;;5014088;28;20288;-74
2022/03/23 00:31:15;;;;;;;12.10;7.93;;;11.00;41.40;;;;;;5014389;28;20327;-73
2022/03/23 00:33:41;;;;;;;9.55;7.30;;;11.00;41.30;;;;;;5014657;28;20249;-73
2022/03/23 00:36:09;;;;;;;10.20;7.90;;;11.00;41.40;;;;;;5032212;28;20185;-73
2022/03/23 00:38:35;;;;;;;10.02;8.65;;;11.00;41.40;;;;;;5036237;28;20620;-74
2022/03/23 00:41:00;;;;;;;11.50;7.20;;;11.00;41.60;;;;;;5043364;28;20180;-73
2022/03/23 00:43:26;;;;;;;8.30;7.40;;;11.00;41.50;;;;;;5029346;28;20260;-73
2022/03/23 00:45:52;;;;;;;9.20;7.40;;;11.00;41.50;;;;;;5040202;28;20193;-73
2022/03/23 00:48:18;;;;;;;12.47;7.90;;;11.00;41.50;;;;;;5031302;28;20201;-74
2022/03/23 00:50:44;;;;;;;10.00;7.27;;;11.00;41.80;;;;;;5014126;28;20165;-74
2022/03/23 00:53:09;;;;;;;11.77;7.30;;;10.90;41.60;;;;;;5031986;28;20560;-74
2022/03/23 00:55:35;;;;;;;9.63;7.97;;;10.90;41.70;;;;;;5032034;28;20165;-74
2022/03/23 00:58:01;;;;;;;9.23;8.33;;;10.90;42.00;;;;;;5013783;28;20224;-74
2022/03/23 01:00:27;;;;;;;8.45;7.60;;;10.90;41.90;;;;;;5031560;28;20170;-74
2022/03/23 01:02:53;;;;;;;8.70;7.63;;;10.90;42.90;;;;;;5013946;28;20220;-75
2022/03/23 01:05:19;;;;;;;13.55;8.88;;;10.90;42.50;;;;;;5014061;28;20165;-74
2022/03/23 01:07:47;;;;;;;9.70;8.25;;;10.90;42.50;;;;;;5031267;28;20201;-74
2022/03/23 01:10:14;;;;;;;12.60;8.35;;;10.90;42.70;;;;;;5031555;28;20257;-74
2022/03/23 01:12:43;;;;;;;9.85;7.07;;;10.80;42.10;;;;;;5013827;28;20664;-74
2022/03/23 01:15:11;;;;;;;9.13;7.15;;;10.80;42.10;;;;;;5014053;28;20169;-73
2022/03/23 01:17:37;;;;;;;8.48;7.10;;;10.80;42.20;;;;;;5013365;28;20665;-74
2022/03/23 01:20:08;;;;;;;8.05;6.80;;;10.80;42.30;;;;;;5031573;28;20162;-73
2022/03/23 01:22:35;;;;;;;8.15;7.32;;;10.80;42.20;;;;;;5033296;28;20169;-74
2022/03/23 01:25:03;;;;;;;10.25;6.72;;;10.80;42.10;;;;;;5013806;28;20237;-73
2022/03/23 01:27:29;;;;;;;8.35;7.55;;;10.70;42.30;;;;;;5030875;28;20198;-73
2022/03/23 01:29:55;;;;;;;9.68;7.32;;;10.70;42.40;;;;;;5031236;28;20201;-73
2022/03/23 01:32:20;;;;;;;7.37;6.37;;;10.70;42.30;;;;;;5013675;28;20259;-74
2022/03/23 01:34:46;;;;;;;10.73;6.63;;;10.70;42.30;;;;;;5031436;28;20292;-73
2022/03/23 01:37:12;;;;;;;10.00;7.53;;;10.60;42.30;;;;;;5013573;28;20166;-74
2022/03/23 01:39:38;;;;;;;9.40;7.80;;;10.60;42.80;;;;;;5031103;28;20165;-74
2022/03/23 01:42:04;;;;;;;8.93;8.10;;;10.60;42.70;;;;;;5031346;28;20572;-73
2022/03/23 01:44:29;;;;;;;11.02;7.38;;;10.50;43.10;;;;;;5030085;28;20562;-73
2022/03/23 01:47:10;;;;;;;11.18;7.20;;;10.50;43.00;;;;;;5013682;28;20201;-74
2022/03/23 01:49:38;;;;;;;9.50;7.28;;;10.50;43.20;;;;;;5031168;28;20584;-73
2022/03/23 01:52:06;;;;;;;13.18;8.70;;;10.50;43.10;;;;;;5031506;28;20173;-74
2022/03/23 01:54:33;;;;;;;9.38;7.75;;;10.50;43.40;;;;;;5031324;28;20173;-74
2022/03/23 01:57:02;;;;;;;11.82;8.68;;;10.40;43.00;;;;;;5013015;28;20196;-73
2022/03/23 01:59:28;;;;;;;9.65;7.95;;;10.40;43.10;;;;;;5021249;28;20286;-74
2022/03/23 02:01:56;;;;;;;9.57;8.30;;;10.40;43.30;;;;;;5017214;28;20197;-74
2022/03/23 02:04:22;;;;;;;9.70;7.63;;;10.30;43.20;;;;;;5017293;28;20227;-74
2022/03/23 02:06:50;;;;;;;10.65;8.55;;;10.30;43.50;;;;;;5017113;28;20201;-74
2022/03/23 02:09:19;;;;;;;11.10;8.50;;;10.20;44.70;;;;;;5017025;28;20224;-74
2022/03/23 02:11:46;;;;;;;8.55;6.90;;;10.20;44.10;;;;;;5016952;28;20204;-74
2022/03/23 02:14:13;;;;;;;10.15;7.68;;;10.20;44.00;;;;;;5016311;28;20566;-73
2022/03/23 02:16:46;;;;;;;9.90;8.18;;;10.20;43.90;;;;;;5017043;28;20583;-73
2022/03/23 02:19:13;;;;;;;11.23;9.15;;;10.10;44.20;;;;;;5016695;28;20707;-73
2022/03/23 02:21:46;;;;;;;10.75;7.97;;;10.10;45.00;;;;;;5016840;28;20203;-73
2022/03/23 02:24:13;;;;;;;9.27;8.30;;;10.10;44.50;;;;;;5034361;28;20257;-73
2022/03/23 02:26:40;;;;;;;10.55;9.45;;;10.10;45.10;;;;;;5016837;28;20701;-73
2022/03/23 02:29:07;;;;;;;10.25;8.93;;;10.10;44.90;;;;;;5033820;28;20206;-73
2022/03/23 02:31:34;;;;;;;10.07;8.90;;;10.00;45.30;;;;;;5033899;28;20261;-73
2022/03/23 02:34:00;;;;;;;12.85;8.27;;;10.00;44.70;;;;;;5033869;28;20506;-73
2022/03/23 02:36:27;;;;;;;9.15;8.25;;;10.00;44.70;;;;;;5035905;28;20212;-73
2022/03/23 02:38:52;;;;;;;12.03;9.60;;;10.00;44.50;;;;;;5034163;28;20831;-73
2022/03/23 02:41:18;;;;;;;9.30;8.17;;;10.00;45.90;;;;;;5034240;28;20953;-73
2022/03/23 02:43:44;;;;;;;10.40;7.97;;;10.00;45.20;;;;;;5016458;28;20173;-73
2022/03/23 02:46:14;;;;;;;10.93;9.05;;;10.00;45.80;;;;;;5034352;28;20300;-73
2022/03/23 02:48:41;;;;;;;8.65;7.00;;;10.00;46.00;;;;;;5033571;28;20240;-73
2022/03/23 02:51:06;;;;;;;13.98;9.02;;;10.00;45.30;;;;;;5034124;28;20564;-73
2022/03/23 03:02:27;;;;;;;9.32;7.57;;;9.90;46.50;;;;;;5033731;28;20201;-73
2022/03/23 03:04:53;;;;;;;8.93;7.30;;;9.90;45.80;;;;;;5033955;28;20174;-73
2022/03/23 03:07:19;;;;;;;11.32;7.88;;;9.90;46.10;;;;;;5033475;28;20567;-73
2022/03/23 03:09:46;;;;;;;10.13;8.17;;;9.90;46.70;;;;;;5032454;28;20166;-73
2022/03/23 03:12:12;;;;;;;9.02;7.32;;;9.90;45.80;;;;;;5035326;28;20638;-73
2022/03/23 03:14:41;;;;;;;9.00;7.78;;;9.90;46.00;;;;;;5017623;28;20220;-73
2022/03/23 03:17:07;;;;;;;10.60;8.00;;;9.80;45.90;;;;;;5033261;28;20165;-73
2022/03/23 03:19:35;;;;;;;9.40;8.02;;;9.80;45.90;;;;;;5033121;28;20594;-73
2022/03/23 03:22:01;;;;;;;9.38;8.38;;;9.80;46.00;;;;;;4999575;28;20677;-74
2022/03/23 03:24:27;;;;;;;12.40;8.50;;;9.80;45.90;;;;;;5033176;28;20174;-74
2022/03/23 03:26:54;;;;;;;13.32;8.73;;;9.70;46.30;;;;;;5033433;28;20642;-73
2022/03/23 03:29:20;;;;;;;12.82;9.02;;;9.70;46.80;;;;;;5015109;28;20205;-73
2022/03/23 03:31:46;;;;;;;10.27;8.30;;;9.60;46.10;;;;;;5033303;28;20300;-73
2022/03/23 03:34:12;;;;;;;8.87;7.83;;;9.60;46.70;;;;;;5015649;28;20257;-74
2022/03/23 03:36:38;;;;;;;8.77;6.90;;;9.50;46.30;;;;;;4998952;28;20182;-74
2022/03/23 03:39:04;;;;;;;10.67;7.73;;;9.50;46.30;;;;;;5032842;28;20193;-74
2022/03/23 03:41:31;;;;;;;11.10;8.25;;;9.50;46.30;;;;;;5033177;28;20573;-74
2022/03/23 03:43:57;;;;;;;8.70;7.72;;;9.40;46.50;;;;;;5033155;28;20182;-74
2022/03/23 03:46:24;;;;;;;8.32;7.18;;;9.40;47.10;;;;;;5033104;28;20515;-74
2022/03/23 03:48:50;;;;;;;13.07;8.48;;;9.30;46.40;;;;;;5015229;28;20263;-74
2022/03/23 03:51:16;;;;;;;11.40;8.57;;;9.30;46.50;;;;;;5037035;28;20166;-74
2022/03/23 03:53:42;;;;;;;9.50;7.77;;;9.30;46.70;;;;;;5033015;28;20519;-74
2022/03/23 03:56:09;;;;;;;8.85;7.28;;;9.20;46.70;;;;;;5032999;28;20173;-74
2022/03/23 03:58:35;;;;;;;8.63;7.50;;;9.20;46.80;;;;;;5032564;28;20220;-73
2022/03/23 04:01:01;;;;;;;10.68;7.30;;;9.10;46.80;;;;;;5032722;28;20182;-73
2022/03/23 04:03:26;;;;;;;10.17;8.13;;;9.10;46.80;;;;;;5032868;28;20523;-73
2022/03/23 04:05:52;;;;;;;10.20;8.07;;;9.10;46.90;;;;;;5033108;28;20200;-73
2022/03/23 04:08:18;;;;;;;8.83;7.10;;;9.00;46.90;;;;;;5032767;28;20238;-73
2022/03/23 04:10:43;;;;;;;8.20;7.10;;;9.00;47.10;;;;;;5032748;28;20158;-73
2022/03/23 04:13:09;;;;;;;10.03;8.13;;;9.00;47.00;;;;;;5033351;28;20162;-73
2022/03/23 04:15:35;;;;;;;8.60;7.70;;;8.90;47.10;;;;;;5033267;28;20157;-74
2022/03/23 04:18:02;;;;;;;10.77;7.68;;;8.90;47.30;;;;;;5032590;28;20198;-73
2022/03/23 04:20:29;;;;;;;8.95;7.70;;;8.80;47.40;;;;;;5031982;28;20530;-73
2022/03/23 04:22:55;;;;;;;10.02;8.95;;;8.70;47.20;;;;;;5032664;28;20201;-73
2022/03/23 04:25:21;;;;;;;9.10;8.20;;;8.70;48.10;;;;;;5014874;28;20257;-74
2022/03/23 04:27:53;;;;;;;9.85;8.43;;;8.70;48.30;;;;;;5035827;28;20201;-73
2022/03/23 04:30:21;;;;;;;9.60;8.20;;;8.60;48.10;;;;;;5032750;28;20567;-73
2022/03/23 04:32:49;;;;;;;9.65;8.02;;;8.60;48.50;;;;;;5032446;28;20166;-73
2022/03/23 04:35:15;;;;;;;8.82;7.93;;;8.50;47.90;;;;;;5032710;28;20263;-74
2022/03/23 04:37:42;;;;;;;9.57;8.18;;;8.50;47.90;;;;;;5031890;28;20327;-74
2022/03/23 04:40:09;;;;;;;10.95;9.05;;;8.50;48.20;;;;;;5031650;28;20169;-73
2022/03/23 04:42:36;;;;;;;12.45;9.70;;;8.40;48.50;;;;;;5031993;28;20516;-74
2022/03/23 04:45:03;;;;;;;12.27;9.70;;;8.40;48.60;;;;;;5014277;28;20184;-73
2022/03/23 04:47:30;;;;;;;13.77;9.98;;;8.30;48.80;;;;;;5031524;28;20574;-73
2022/03/23 04:49:56;;;;;;;9.60;8.63;;;8.30;49.00;;;;;;5031949;28;20170;-74
2022/03/23 04:52:22;;;;;;;10.80;8.50;;;8.30;48.70;;;;;;5031877;28;20673;-73
2022/03/23 04:54:47;;;;;;;13.10;10.07;;;8.20;48.40;;;;;;5032002;28;20158;-74
2022/03/23 04:57:13;;;;;;;9.53;8.50;;;8.20;48.80;;;;;;5031595;28;20219;-73
2022/03/23 04:59:39;;;;;;;12.30;8.07;;;8.20;48.50;;;;;;5014071;28;20642;-73
2022/03/23 05:02:05;;;;;;;10.20;7.97;;;8.20;48.90;;;;;;5031744;28;20169;-74
2022/03/23 05:04:31;;;;;;;9.35;7.32;;;8.20;49.50;;;;;;5017402;28;20212;-78
2022/03/23 05:06:57;;;;;;;9.73;8.60;;;8.20;48.90;;;;;;5032087;28;20166;-79
2022/03/23 05:09:22;;;;;;;10.52;8.23;;;8.20;49.00;;;;;;5031564;28;20644;-79
2022/03/23 05:11:48;;;;;;;12.23;7.80;;;8.20;49.40;;;;;;5031556;28;20208;-79
2022/03/23 05:14:15;;;;;;;10.50;8.00;;;8.20;49.10;;;;;;5014069;28;20173;-79
2022/03/23 05:16:42;;;;;;;11.63;8.40;;;8.20;49.40;;;;;;5031656;28;20187;-79
2022/03/23 05:19:08;;;;;;;9.75;7.90;;;8.20;49.00;;;;;;5031763;28;20678;-79
2022/03/23 05:21:34;;;;;;;11.10;7.80;;;8.20;49.30;;;;;;5032359;28;20181;-79
2022/03/23 05:24:00;;;;;;;11.02;9.23;;;8.20;49.10;;;;;;5032546;28;20189;-79
2022/03/23 05:26:26;;;;;;;11.30;8.03;;;8.20;50.00;;;;;;5033318;28;20177;-79
2022/03/23 05:28:52;;;;;;;9.90;8.13;;;8.20;49.40;;;;;;4999088;28;21106;-79
2022/03/23 05:31:18;;;;;;;10.50;7.50;;;8.20;49.40;;;;;;5032893;28;20683;-79
2022/03/23 05:33:44;;;;;;;10.52;9.25;;;8.20;49.30;;;;;;5035119;28;20181;-79
2022/03/23 05:36:13;;;;;;;10.30;8.07;;;8.20;49.60;;;;;;5003864;28;20169;-79
2022/03/23 05:38:40;;;;;;;12.50;9.15;;;8.20;49.50;;;;;;5045981;28;20637;-80
2022/03/23 05:41:06;;;;;;;9.97;8.00;;;8.10;49.90;;;;;;5040170;28;20166;-80
2022/03/23 05:43:31;;;;;;;9.53;8.53;;;8.20;49.70;;;;;;5018121;28;20581;-80
2022/03/23 05:45:57;;;;;;;12.43;8.50;;;8.20;50.30;;;;;;5035357;28;21177;-80
2022/03/23 05:48:22;;;;;;;9.57;8.53;;;8.10;49.90;;;;;;5034819;28;20198;-80
2022/03/23 05:50:48;;;;;;;9.80;8.23;;;8.10;49.70;;;;;;5035173;28;20201;-79
2022/03/23 05:53:14;;;;;;;12.10;8.90;;;8.20;49.90;;;;;;5035529;28;20227;-80
2022/03/23 05:55:39;;;;;;;12.57;9.40;;;8.20;50.50;;;;;;5035482;28;20205;-80
2022/03/23 05:58:05;;;;;;;11.27;8.43;;;8.20;50.30;;;;;;5034825;28;20196;-80
2022/03/23 06:00:32;;;;;;;10.60;9.50;;;8.20;49.90;;;;;;5034791;28;20174;-81
2022/03/23 06:02:58;;;;;;;12.70;9.45;;;8.20;50.20;;;;;;5035265;28;20189;-80
2022/03/23 06:05:24;;;;;;;10.87;8.67;;;8.20;50.30;;;;;;5035085;28;20169;-79
2022/03/23 06:07:50;;;;;;;12.27;10.00;;;8.20;50.30;;;;;;5034758;28;20206;-80
2022/03/23 06:10:15;;;;;;;10.53;8.97;;;8.20;50.50;;;;;;5035197;28;20575;-80
2022/03/23 06:12:41;;;;;;;11.47;8.93;;;8.20;50.50;;;;;;5035096;28;20202;-80
2022/03/23 06:15:10;;;;;;;10.90;8.77;;;8.30;50.70;;;;;;5017329;28;20162;-80
2022/03/23 06:17:36;;;;;;;10.68;8.10;;;8.30;50.40;;;;;;5039122;28;20202;-80
2022/03/23 06:20:03;;;;;;;9.18;8.20;;;8.40;50.40;;;;;;5034955;28;20170;-80
2022/03/23 06:22:29;;;;;;;10.65;8.73;;;8.40;50.60;;;;;;5017276;28;20213;-80
2022/03/23 06:24:55;;;;;;;11.90;10.03;;;8.50;50.60;;;;;;5034593;28;20174;-80
2022/03/23 06:27:21;;;;;;;12.90;10.03;;;8.50;51.00;;;;;;5034268;28;21118;-80
2022/03/23 06:29:47;;;;;;;11.93;9.83;;;8.50;51.10;;;;;;5034595;28;20204;-80
2022/03/23 06:32:13;;;;;;;13.23;9.80;;;8.50;50.80;;;;;;5034880;28;20521;-80
2022/03/23 06:34:39;;;;;;;14.80;9.30;;;8.50;51.00;;;;;;5017066;28;20987;-80
2022/03/23 06:37:05;;;;;;;11.27;9.02;;;8.60;51.00;;;;;;5034621;28;20557;-80
2022/03/23 06:39:32;;;;;;;12.93;9.85;;;8.60;51.50;;;;;;5035190;28;20551;-81
2022/03/23 06:41:58;;;;;;;11.70;10.15;;;8.70;52.40;;;;;;5034866;28;20230;-83
2022/03/23 06:44:24;;;;;;;15.25;11.50;;;8.70;51.90;;;;;;5034944;28;21131;-82
2022/03/23 06:46:50;;;;;;;12.07;10.73;;;8.80;54.30;;;;;;5037893;28;20241;-82
2022/03/23 06:49:16;;;;;;;10.87;9.70;;;8.80;53.10;;;;;;5036289;28;20959;-83
2022/03/23 06:51:42;;;;;;;15.07;10.40;;;8.90;52.60;;;;;;5037331;28;20174;-81
2022/03/23 06:54:08;;;;;;;12.18;9.52;;;9.10;52.60;;;;;;5020168;28;20236;-79
2022/03/23 06:56:34;;;;;;;13.05;9.63;;;9.20;52.30;;;;;;5038218;28;20196;-80
2022/03/23 06:59:00;;;;;;;12.75;11.32;;;9.30;52.50;;;;;;5016884;28;20706;-79
2022/03/23 07:01:25;;;;;;;12.43;10.13;;;9.40;53.70;;;;;;5034976;28;20181;-80
2022/03/23 07:03:52;;;;;;;11.93;9.63;;;9.50;53.00;;;;;;5017287;28;20516;-80
2022/03/23 07:06:18;;;;;;;17.77;9.90;;;9.60;52.70;;;;;;5039414;28;20176;-80
2022/03/23 07:11:29;;;;;;;15.40;11.32;;;9.80;52.70;;;;;;5036500;28;20170;-81
2022/03/23 07:13:56;;;;;;;12.85;11.00;;;10.00;51.70;;;;;;5035987;28;20549;-80
2022/03/23 07:16:22;;;;;;;14.38;12.10;;;10.10;52.00;;;;;;5034628;28;20690;-79
2022/03/23 07:18:48;;;;;;;14.15;11.68;;;10.10;52.90;;;;;;5038286;28;20209;-79
2022/03/23 07:21:15;;;;;;;15.25;11.30;;;10.20;52.60;;;;;;5034392;28;20181;-78
2022/03/23 07:23:40;;;;;;;16.23;11.07;;;10.40;53.00;;;;;;5035172;28;20173;-78
2022/03/23 07:26:06;;;;;;;13.90;10.63;;;10.60;52.30;;;;;;5034677;28;20528;-80
2022/03/23 07:28:32;;;;;;;15.30;10.37;;;10.90;52.40;;;;;;5034511;28;20202;-81
2022/03/23 07:30:58;;;;;;;13.83;10.90;;;11.50;53.00;;;;;;5036895;28;20211;-80
2022/03/23 07:33:24;;;;;;;17.33;12.23;;;12.30;53.80;;;;;;5038509;28;20692;-80
2022/03/23 07:35:50;;;;;;;11.37;10.00;;;13.20;54.10;;;;;;5016978;28;20240;-80
2022/03/23 07:38:15;;;;;;;15.93;11.97;;;13.80;53.60;;;;;;5033508;28;20192;-80
2022/03/23 07:40:43;;;;;;;14.03;11.00;;;14.50;53.50;;;;;;5034889;28;20170;-80
2022/03/23 07:43:09;;;;;;;12.37;10.83;;;15.10;52.60;;;;;;5034259;28;20190;-80
2022/03/23 07:45:35;;;;;;;12.27;10.97;;;15.70;52.60;;;;;;5034263;28;20585;-81
2022/03/23 07:48:01;;;;;;;12.13;10.37;;;16.40;52.70;;;;;;5033826;28;20730;-80
2022/03/23 07:50:27;;;;;;;13.83;10.33;;;17.20;52.20;;;;;;5033456;28;20652;-80
2022/03/23 07:52:53;;;;;;;12.13;9.47;;;17.80;51.70;;;;;;5031356;28;20587;-80
2022/03/23 07:55:19;;;;;;;11.30;9.73;;;18.50;51.70;;;;;;5035966;28;20971;-80
2022/03/23 07:57:51;;;;;;;11.13;9.57;;;19.30;51.80;;;;;;5033725;28;20631;-80
2022/03/23 08:00:21;;;;;;;12.13;11.03;;;20.30;51.50;;;;;;5033742;28;20587;-79
2022/03/23 08:02:47;;;;;;;11.17;10.07;;;21.00;51.20;;;;;;5033935;28;20603;-81
2022/03/23 08:05:13;;;;;;;14.07;10.70;;;21.60;50.00;;;;;;5033398;28;20561;-81
2022/03/23 08:07:39;;;;;;;13.17;11.87;;;22.00;48.90;;;;;;5032753;28;20205;-80
2022/03/23 08:10:05;;;;;;;11.33;10.23;;;22.50;48.30;;;;;;5017383;28;20967;-80
2022/03/23 08:12:31;;;;;;;12.20;11.00;;;23.00;47.60;;;;;;5013761;28;20205;-80
2022/03/23 08:14:57;;;;;;;13.03;11.00;;;23.20;45.20;;;;;;5012746;28;20565;-81
2022/03/23 08:17:22;;;;;;;13.03;10.57;;;23.30;45.10;;;;;;5012713;28;20189;-80
2022/03/23 08:20:32;;;;;;;10.53;9.53;;;23.40;44.80;;;;;;5014341;28;20228;-81
2022/03/23 08:22:34;;;;;;;11.63;10.63;;;23.70;44.30;;;;;;5014075;28;20609;-82
2022/03/23 08:25:00;;;;;;;10.73;9.57;;;24.10;44.30;;;;;;5014031;28;20660;-82
2022/03/23 08:27:26;;;;;;;11.70;10.50;;;24.50;44.60;;;;;;5017796;28;20582;-80
2022/03/23 08:29:52;;;;;;;13.20;11.37;;;25.10;44.60;;;;;;5034751;28;21202;-80
2022/03/23 08:32:18;;;;;;;12.40;10.10;;;25.60;44.30;;;;;;5034326;28;20576;-81
2022/03/23 08:34:44;;;;;;;12.00;11.00;;;26.00;44.00;;;;;;5036322;28;20248;-81
2022/03/23 08:37:10;;;;;;;12.07;10.80;;;26.50;43.50;;;;;;5033379;28;21116;-81
2022/03/23 08:39:35;;;;;;;12.43;11.33;;;27.10;43.40;;;;;;5035370;28;20219;-80
2022/03/23 08:42:01;;;;;;;12.07;10.83;;;27.50;42.70;;;;;;5016772;28;20166;-80
2022/03/23 08:44:27;;;;;;;11.57;10.20;;;28.00;41.80;;;;;;5034718;28;20680;-81
2022/03/23 08:46:53;;;;;;;10.83;9.83;;;28.30;40.80;;;;;;5037370;28;20170;-80
2022/03/23 08:49:18;;;;;;;13.33;11.07;;;28.60;40.70;;;;;;5032797;28;20227;-80
2022/03/23 08:51:44;;;;;;;12.60;9.87;;;28.60;39.90;;;;;;5028037;28;20174;-79
2022/03/23 08:54:10;;;;;;;11.80;10.80;;;28.80;39.70;;;;;;5015668;28;20174;-80
2022/03/23 08:56:36;;;;;;;12.27;11.17;;;29.10;39.50;;;;;;5033433;28;20169;-80
2022/03/23 08:59:02;;;;;;;12.07;10.83;;;29.30;38.90;;;;;;5032352;28;21175;-81
2022/03/23 09:01:28;;;;;;;12.50;10.60;;;29.50;38.30;;;;;;5014932;28;20599;-81
2022/03/23 09:03:55;;;;;;;14.27;13.07;;;29.70;38.40;;;;;;5033040;28;20182;-79
2022/03/23 09:06:21;;;;;;;12.53;11.33;;;30.00;36.30;;;;;;5032874;28;20196;-79
2022/03/23 09:08:47;;;;;;;14.23;12.67;;;30.10;36.60;;;;;;5031788;28;20666;-78
2022/03/23 09:11:12;;;;;;;12.07;11.07;;;30.30;36.80;;;;;;5014632;28;20267;-79
2022/03/23 09:13:39;;;;;;;15.50;10.70;;;30.60;36.90;;;;;;5034009;28;20633;-79
2022/03/23 09:16:05;;;;;;;13.97;10.97;;;31.00;36.60;;;;;;5032269;28;20197;-79
2022/03/23 09:18:31;;;;;;;12.23;11.03;;;31.10;36.30;;;;;;5031844;28;20616;-80
2022/03/23 09:20:57;;;;;;;16.13;13.00;;;31.40;36.10;;;;;;5031746;28;20176;-81
2022/03/23 09:23:22;;;;;;;12.37;11.27;;;31.60;34.70;;;;;;5036341;28;20834;-81
2022/03/23 09:25:49;;;;;;;13.80;12.50;;;31.40;34.70;;;;;;5033224;28;20182;-81
2022/03/23 09:28:15;;;;;;;13.70;12.30;;;31.40;34.70;;;;;;5032012;28;20234;-80
2022/03/23 09:30:40;;;;;;;12.93;11.73;;;31.60;34.20;;;;;;5032390;28;20618;-82
2022/03/23 09:33:07;;;;;;;12.20;11.20;;;31.60;34.30;;;;;;5032315;28;20172;-81
2022/03/23 09:35:32;;;;;;;13.80;12.60;;;31.70;33.80;;;;;;5032625;28;20314;-81
2022/03/23 09:37:59;;;;;;;13.67;12.30;;;31.90;33.80;;;;;;5031838;28;21080;-79
2022/03/23 09:40:30;;;;;;;14.63;13.27;;;32.10;33.80;;;;;;5033850;28;20197;-80
2022/03/23 09:42:56;;;;;;;13.17;11.97;;;32.30;33.30;;;;;;5032237;28;20571;-83
2022/03/23 09:48:11;;;;;;;12.50;11.37;;;32.70;33.20;;;;;;5032434;28;20638;-82
2022/03/23 09:50:43;;;;;;;11.30;10.40;;;33.10;32.70;;;;;;5032836;28;21202;-82
2022/03/23 09:53:09;;;;;;;12.80;11.70;;;33.40;32.70;;;;;;5033371;28;20574;-82
2022/03/23 09:55:36;;;;;;;13.20;11.83;;;33.70;32.60;;;;;;5015603;28;20916;-82
2022/03/23 09:58:04;;;;;;;12.40;11.30;;;33.60;31.70;;;;;;5030188;28;20607;-78
2022/03/23 10:00:38;;;;;;;13.77;12.40;;;33.50;31.70;;;;;;5034424;28;20578;-78
2022/03/23 10:03:51;;;;;;;13.03;11.63;;;33.70;31.00;;;;;;5013553;28;20624;-80
2022/03/23 10:06:22;;;;;;;12.93;11.60;;;33.90;31.10;;;;;;5008847;28;20594;-81
2022/03/23 10:09:07;;;;;;;13.17;11.80;;;34.00;30.60;;;;;;5032401;28;20649;-82
2022/03/23 10:12:10;;;;;;;13.47;12.17;;;33.90;30.00;;;;;;5040028;28;20598;-82
2022/03/23 10:15:13;;;;;;;12.27;11.13;;;34.00;30.50;;;;;;5039806;28;20586;-82
2022/03/23 10:18:04;;;;;;;12.37;11.13;;;34.20;30.30;;;;;;5051783;28;20717;-83
2022/03/23 10:20:29;;;;;;;13.20;12.10;;;34.40;30.20;;;;;;5055892;28;20572;-82
2022/03/23 10:22:56;;;;;;;14.03;12.73;;;34.50;30.20;;;;;;5045935;28;20579;-82
2022/03/23 10:25:26;;;;;;;14.00;12.70;;;34.60;29.50;;;;;;5035663;28;20572;-81
2022/03/23 10:27:57;;;;;;;14.13;12.90;;;34.70;29.40;;;;;;5034325;28;20250;-81
2022/03/23 10:30:36;;;;;;;12.27;11.23;;;34.70;28.90;;;;;;5035520;28;20574;-81
2022/03/23 10:33:02;;;;;;;15.27;13.90;;;34.70;28.80;;;;;;5029855;28;20590;-83
2022/03/23 10:35:40;;;;;;;14.63;12.93;;;34.30;28.40;;;;;;5037000;28;20574;-82
2022/03/23 10:38:16;;;;;;;15.83;11.50;;;34.10;28.50;;;;;;5020331;28;20610;-83
2022/03/23 10:40:44;;;;;;;14.77;13.20;;;33.90;28.60;;;;;;5015546;28;20581;-83
2022/03/23 10:43:15;;;;;;;15.67;14.20;;;33.60;28.10;;;;;;5015067;28;21147;-82
2022/03/23 10:45:41;;;;;;;13.30;12.10;;;33.20;28.20;;;;;;5030170;28;20590;-81
2022/03/23 10:48:17;;;;;;;13.00;11.73;;;33.00;28.30;;;;;;5034830;28;20996;-82
2022/03/23 10:50:54;;;;;;;14.20;12.57;;;32.80;28.20;;;;;;5035427;28;20578;-82
2022/03/23 10:53:41;;;;;;;14.80;13.30;;;32.70;28.30;;;;;;5035527;28;20574;-82
2022/03/23 10:56:07;;;;;;;14.50;13.20;;;32.20;27.90;;;;;;5035829;28;21184;-81
2022/03/23 10:58:34;;;;;;;13.07;11.77;;;32.10;28.20;;;;;;5035846;28;20602;-82
2022/03/23 11:01:06;;;;;;;13.07;11.97;;;32.00;27.80;;;;;;5018824;28;20678;-82
2022/03/23 11:03:43;;;;;;;13.10;11.90;;;31.80;27.40;;;;;;5035954;28;20664;-81
2022/03/23 11:06:10;;;;;;;13.27;12.10;;;31.60;27.60;;;;;;5034882;28;20651;-81
2022/03/23 11:08:37;;;;;;;13.23;12.07;;;31.40;27.20;;;;;;5018258;28;20645;-81
2022/03/23 11:16:51;;;;;;;13.30;12.00;;;30.80;27.10;;;;;;5019754;28;20579;-81
2022/03/23 11:19:24;;;;;;;14.03;12.63;;;30.70;27.10;;;;;;5035456;28;21048;-81
2022/03/23 11:22:01;;;;;;;13.50;12.27;;;30.70;27.20;;;;;;5036968;28;20587;-81
2022/03/23 11:24:32;;;;;;;13.83;12.47;;;30.70;27.10;;;;;;5035415;28;20670;-82
2022/03/23 11:26:58;;;;;;;13.97;12.67;;;30.50;26.50;;;;;;5036505;28;20573;-81
2022/03/23 11:29:24;;;;;;;14.40;11.80;;;30.40;27.10;;;;;;5035512;28;20648;-81
2022/03/23 11:31:54;;;;;;;13.63;12.33;;;30.40;27.10;;;;;;5016597;28;20185;-81
2022/03/23 11:34:23;;;;;;;11.37;10.43;;;30.40;27.30;;;;;;5034629;28;20572;-81
2022/03/23 11:36:52;;;;;;;13.57;12.27;;;30.50;27.60;;;;;;5034727;28;20571;-81
2022/03/23 11:39:21;;;;;;;13.73;12.33;;;30.50;27.30;;;;;;5035583;28;20616;-81
2022/03/23 11:41:50;;;;;;;12.13;10.80;;;30.50;27.10;;;;;;5035098;28;20612;-80
2022/03/23 11:44:17;;;;;;;12.87;11.57;;;30.40;27.30;;;;;;5037368;28;20561;-81
2022/03/23 11:46:45;;;;;;;14.80;13.40;;;30.50;27.50;;;;;;5036019;28;20569;-82
2022/03/23 11:49:34;;;;;;;13.10;11.80;;;30.50;27.10;;;;;;5035341;28;20631;-80
2022/03/23 11:52:10;;;;;;;13.87;12.50;;;30.30;26.90;;;;;;5021526;28;20647;-80
2022/03/23 11:57:58;;;;;;;15.10;13.00;;;30.30;27.50;;;;;;5032800;28;20553;-83
2022/03/23 12:00:26;;;;;;;14.40;11.30;;;30.20;27.50;;;;;;5017169;28;20564;-84
2022/03/23 12:02:53;;;;;;;13.67;12.37;;;30.30;27.70;;;;;;5031177;28;20616;-84
2022/03/23 12:05:28;;;;;;;13.93;12.63;;;30.40;28.10;;;;;;5015295;28;20610;-84
2022/03/23 12:07:54;;;;;;;13.40;12.00;;;30.40;27.50;;;;;;5013154;28;20642;-83
2022/03/23 12:10:22;;;;;;;14.20;12.80;;;30.40;27.60;;;;;;5018953;28;20627;-84
2022/03/23 12:12:48;;;;;;;14.13;12.83;;;30.50;27.50;;;;;;5015596;28;20580;-84
2022/03/23 12:15:23;;;;;;;13.90;12.47;;;30.40;27.30;;;;;;5033147;28;20580;-84
2022/03/23 12:17:55;;;;;;;13.57;12.17;;;30.20;27.10;;;;;;5032919;28;20719;-82
2022/03/23 12:20:31;;;;;;;14.97;13.57;;;30.20;27.30;;;;;;5034396;28;20588;-81
2022/03/23 12:23:15;;;;;;;14.57;13.17;;;30.10;27.00;;;;;;5012300;28;21218;-83
2022/03/23 12:25:56;;;;;;;13.40;12.10;;;29.90;26.80;;;;;;5015739;28;21120;-81
2022/03/23 12:28:56;;;;;;;14.37;12.80;;;29.70;26.70;;;;;;4984496;28;21275;-81
2022/03/23 12:31:33;;;;;;;14.10;12.60;;;29.40;26.70;;;;;;5013572;28;20569;-82
2022/03/23 12:34:07;;;;;;;12.97;11.73;;;29.10;26.70;;;;;;5014622;28;21074;-81
2022/03/23 12:36:58;;;;;;;13.23;11.83;;;28.90;27.30;;;;;;5014989;28;20587;-82
2022/03/23 12:39:37;;;;;;;14.30;12.80;;;28.60;26.80;;;;;;5014591;28;20674;-81
2022/03/23 12:42:12;;;;;;;15.20;13.17;;;28.30;26.60;;;;;;5017698;28;20595;-82
2022/03/23 12:44:40;;;;;;;14.50;13.10;;;28.00;26.60;;;;;;5032630;28;20576;-80
2022/03/23 12:47:26;;;;;;;15.80;14.20;;;27.70;26.90;;;;;;5032320;28;20576;-82
2022/03/23 12:58:24;;;;;;;14.43;13.03;;;27.00;27.40;;;;;;5026245;28;20612;-81
2022/03/23 13:00:52;;;;;;;12.77;10.90;;;26.80;27.20;;;;;;5022357;28;20575;-81
2022/03/23 13:03:22;;;;;;;11.60;10.47;;;26.70;27.30;;;;;;5039408;28;20653;-82
2022/03/23 13:06:00;;;;;;;11.63;9.57;;;26.60;27.30;;;;;;5025539;28;20588;-82
2022/03/23 13:08:33;;;;;;;9.97;9.00;;;26.40;27.80;;;;;;5041192;28;20745;-83
2022/03/23 13:11:02;;;;;;;9.50;8.37;;;26.30;27.00;;;;;;5041445;28;20624;-83
2022/03/23 13:13:32;;;;;;;12.10;10.20;;;26.10;27.00;;;;;;5043853;28;20579;-81
2022/03/23 13:15:59;;;;;;;11.67;10.47;;;26.10;27.20;;;;;;5048378;28;20967;-81